»·PEaware :: ASA625 KTUS-KPHX

ASA625 :: KTUS-KPHX

FLIGHT INFORMATION

Flight Status: Arrived
Operator:
Alaska Airlines
More flights by this operator :: More flights under this callsign
Pilot: Pratham R. (19019)
Aircraft: AIRBUS A320
(A320)
More flights by this aircraft type
Origin: KTUS Tucson Intl
United States
Destination: KPHX Phoenix Sky Harbor Intl
United States
More flights between these airports :: More routes between these airports
Route: WLDKT3 WLDKT HOTTT PINNG1
File this flight plan on PilotEdge
Remarks: RMK / SIMBRIEF
Altitude:
(Current/Filed)
20,000ft
Speed:
(Current/Filed)
417kts
Departed: 18-Aug-19 05:15 PM
Arrived: 18-Aug-19 05:41 PM
Distance/Time
Traveled:
95nm/0:26
Distance/Time
To Go:
Arrived

Flight Plot

Page will automatically refresh every two minutes.

Flight plan parsing failed; only flown route is shown


Map Options




Map Legend


Flown Route
Filed Route
Departure Airport
Arrival Airport
Navaid (VOR, NDB)
Fix

Horizontal Profiles

Position Reports

Time Latitude Longitude Heading Altitude Ground
Speed
18-Aug-19 16:36 32.118799 -110.936488 333 2607ft 0kts
18-Aug-19 16:37 32.118799 -110.936488 333 2607ft 0kts
18-Aug-19 16:38 32.118799 -110.936488 333 2607ft 0kts
18-Aug-19 16:39 32.118799 -110.936488 333 2607ft 0kts
18-Aug-19 16:40 32.118799 -110.936488 333 2607ft 0kts
18-Aug-19 16:41 32.118799 -110.936488 333 2607ft 0kts
18-Aug-19 16:42 32.118799 -110.936488 333 2607ft 0kts
18-Aug-19 16:43 32.118799 -110.936488 333 2607ft 0kts
18-Aug-19 16:44 32.118799 -110.936488 333 2607ft 0kts
18-Aug-19 16:45 32.118799 -110.936488 333 2607ft 0kts
18-Aug-19 16:46 32.118799 -110.936488 333 2607ft 0kts
18-Aug-19 16:47 32.118799 -110.936488 333 2607ft 0kts
18-Aug-19 16:48 32.118799 -110.936488 333 2607ft 0kts
18-Aug-19 16:49 32.118799 -110.936488 333 2607ft 0kts
18-Aug-19 16:50 32.118799 -110.936488 333 2607ft 0kts
18-Aug-19 16:51 32.118799 -110.936488 333 2607ft 0kts
18-Aug-19 16:52 32.118799 -110.936488 333 2607ft 0kts
18-Aug-19 16:53 32.118799 -110.936488 333 2607ft 0kts
18-Aug-19 16:54 32.118799 -110.936488 333 2607ft 0kts
18-Aug-19 16:55 32.118799 -110.936488 333 2607ft 0kts
18-Aug-19 16:56 32.118799 -110.936488 333 2607ft 0kts
18-Aug-19 16:57 32.118799 -110.936488 333 2607ft 0kts
18-Aug-19 16:58 32.118447 -110.936281 333 2608ft 2kts
18-Aug-19 16:59 32.118013 -110.935910 285 2608ft 2kts
18-Aug-19 17:00 32.118148 -110.935472 219 2608ft 0kts
18-Aug-19 17:01 32.118147 -110.935472 219 2608ft 0kts
18-Aug-19 17:02 32.118147 -110.935473 219 2608ft 0kts
18-Aug-19 17:03 32.118147 -110.935473 219 2608ft 0kts
18-Aug-19 17:04 32.118147 -110.935473 219 2608ft 0kts
18-Aug-19 17:05 32.118147 -110.935473 219 2608ft 0kts
18-Aug-19 17:06 32.117882 -110.935729 219 2609ft 5kts
18-Aug-19 17:07 32.117453 -110.938079 205 2607ft 11kts
18-Aug-19 17:08 32.115311 -110.935935 135 2615ft 19kts
18-Aug-19 17:10 32.112053 -110.932131 134 2626ft 20kts
18-Aug-19 17:11 32.106920 -110.926114 135 2643ft 24kts
18-Aug-19 17:12 32.103939 -110.922575 133 2655ft 10kts
18-Aug-19 17:13 32.102406 -110.922553 228 2655ft 10kts
18-Aug-19 17:14 32.115253 -110.938194 315 2892ft 166kts
18-Aug-19 17:15 32.152401 -110.979709 315 5624ft 215kts
18-Aug-19 17:16 32.202909 -111.039002 312 7739ft 291kts
18-Aug-19 17:17 32.279232 -111.060779 4 10853ft 318kts
18-Aug-19 17:18 32.377341 -111.049389 4 12141ft 388kts
18-Aug-19 17:19 32.484679 -111.036952 4 14315ft 404kts
18-Aug-19 17:20 32.590019 -111.078773 326 16409ft 414kts
18-Aug-19 17:21 32.689185 -111.153696 326 18371ft 428kts
18-Aug-19 17:22 32.776459 -111.248790 302 19917ft 429kts
18-Aug-19 17:23 32.845077 -111.371020 302 19738ft 432kts
18-Aug-19 17:24 32.904754 -111.477272 302 17982ft 348kts
18-Aug-19 17:25 32.962589 -111.565420 307 15802ft 333kts
18-Aug-19 17:26 33.019228 -111.650111 306 14128ft 324kts
18-Aug-19 17:27 33.072143 -111.729432 306 12563ft 312kts
18-Aug-19 17:28 33.127803 -111.812878 306 11753ft 341kts
18-Aug-19 17:29 33.182301 -111.895059 307 9367ft 298kts
18-Aug-19 17:30 33.230323 -111.967602 308 8256ft 265kts
18-Aug-19 17:31 33.274222 -112.033826 308 7303ft 252kts
18-Aug-19 17:32 33.310910 -112.096316 295 6861ft 237kts
18-Aug-19 17:33 33.338176 -112.167108 294 5777ft 238kts
18-Aug-19 17:34 33.354416 -112.239649 326 5025ft 238kts
18-Aug-19 17:35 33.412387 -112.237773 46 4798ft 211kts
18-Aug-19 17:36 33.430829 -112.180406 86 3639ft 186kts
18-Aug-19 17:37 33.430631 -112.121920 88 2581ft 179kts
18-Aug-19 17:38 33.430989 -112.068698 88 1849ft 142kts
18-Aug-19 17:39 33.431047 -112.026837 88 1155ft 137kts
18-Aug-19 17:40 33.431078 -112.007452 83 1127ft 14kts
18-Aug-19 17:41 33.432356 -112.004742 28 1128ft 8kts
18-Aug-19 17:42 33.432841 -112.001350 89 1127ft 13kts
18-Aug-19 17:43 33.432835 -111.996706 90 1125ft 13kts
18-Aug-19 17:44 33.434025 -111.995452 67 1126ft 3kts
18-Aug-19 17:45 33.434067 -111.994789 88 1126ft 0kts
18-Aug-19 17:46 33.434067 -111.994789 88 1126ft 0kts
18-Aug-19 17:47 33.434067 -111.994789 88 1126ft 0kts
18-Aug-19 17:48 33.434067 -111.994789 88 1126ft 0kts
18-Aug-19 17:49 33.434067 -111.994789 88 1126ft 0kts
18-Aug-19 17:50 33.434067 -111.994789 88 1126ft 0kts
18-Aug-19 17:51 33.434067 -111.994789 88 1126ft 0kts
18-Aug-19 17:52 33.434067 -111.994789 88 1126ft 0kts
18-Aug-19 17:53 33.434067 -111.994789 88 1126ft 0kts

Navigation Log

Ident Type
Flight plan parsing failed, navigation log unavailable